QTR744 OEJN-OMDB
Flight info
| Callsign | QTR744 |
|---|---|
| Flight time | 1h 57m |
| Altitude | 38000 |
| Route | EGREP2W EGREP B417 GAS L308 DAROR P559 TOMSO/N0466F310 P559 VUTEB VUTEB4C |
| Aircraft | A333/H-SDE3GHIJ2J3J5M1RVWXYZ/LB2D1 |
Departure
| Time | 2026-04-22 20:35 |
|---|---|
| Airport | King Abdulaziz International Airport (OEJN) |
Arrival
| Time | 2026-04-22 22:33 |
|---|---|
| Airport | Dubai International Airport (OMDB) |
| Time | Latitude | Longitude | Altitude | Speed | Heading |
|---|---|---|---|---|---|
| 2026-04-22 19:55 | 21.68070 | 39.14829 | 58 ft | 0 kts | 69° |
| 2026-04-22 20:19 | 21.68068 | 39.14822 | 58 ft | 0 kts | 69° |
| 2026-04-22 20:20 | 21.68067 | 39.14820 | 58 ft | 1 kts | 69° |
| 2026-04-22 20:20 | 21.68060 | 39.14801 | 58 ft | 4 kts | 70° |
| 2026-04-22 20:20 | 21.68052 | 39.14760 | 58 ft | 0 kts | 101° |
| 2026-04-22 20:20 | 21.68055 | 39.14750 | 58 ft | 2 kts | 110° |
| 2026-04-22 20:21 | 21.68058 | 39.14742 | 58 ft | 0 kts | 148° |
| 2026-04-22 20:21 | 21.68051 | 39.14745 | 58 ft | 0 kts | 158° |
| 2026-04-22 20:24 | 21.68045 | 39.14747 | 58 ft | 2 kts | 160° |
| 2026-04-22 20:25 | 21.68011 | 39.14759 | 58 ft | 7 kts | 160° |
| 2026-04-22 20:25 | 21.67947 | 39.14784 | 58 ft | 12 kts | 160° |
| 2026-04-22 20:25 | 21.67854 | 39.14820 | 58 ft | 16 kts | 158° |
| 2026-04-22 20:25 | 21.67732 | 39.14868 | 58 ft | 20 kts | 160° |
| 2026-04-22 20:26 | 21.67581 | 39.14927 | 58 ft | 25 kts | 160° |
| 2026-04-22 20:26 | 21.67487 | 39.14966 | 58 ft | 8 kts | 156° |
| 2026-04-22 20:26 | 21.67450 | 39.15028 | 58 ft | 12 kts | 91° |
| 2026-04-22 20:26 | 21.67477 | 39.15138 | 58 ft | 16 kts | 71° |
| 2026-04-22 20:27 | 21.67522 | 39.15270 | 58 ft | 21 kts | 70° |
| 2026-04-22 20:27 | 21.67578 | 39.15431 | 58 ft | 25 kts | 69° |
| 2026-04-22 20:27 | 21.67640 | 39.15623 | 58 ft | 27 kts | 87° |
| 2026-04-22 20:27 | 21.67508 | 39.15722 | 58 ft | 23 kts | 160° |
| 2026-04-22 20:28 | 21.67342 | 39.15787 | 58 ft | 27 kts | 160° |
| 2026-04-22 20:28 | 21.67253 | 39.15824 | 58 ft | 0 kts | 163° |
| 2026-04-22 20:28 | 21.67251 | 39.15825 | 58 ft | 1 kts | 162° |
| 2026-04-22 20:29 | 21.67225 | 39.15836 | 58 ft | 6 kts | 159° |
| 2026-04-22 20:29 | 21.67169 | 39.15857 | 58 ft | 10 kts | 160° |
| 2026-04-22 20:29 | 21.67083 | 39.15890 | 58 ft | 15 kts | 161° |
| 2026-04-22 20:29 | 21.66970 | 39.15937 | 58 ft | 19 kts | 159° |
| 2026-04-22 20:30 | 21.66829 | 39.15993 | 58 ft | 23 kts | 159° |
| 2026-04-22 20:30 | 21.66661 | 39.16061 | 58 ft | 27 kts | 157° |
| 2026-04-22 20:30 | 21.66477 | 39.16129 | 58 ft | 29 kts | 159° |
| 2026-04-22 20:30 | 21.66344 | 39.16180 | 58 ft | 0 kts | 159° |
| 2026-04-22 20:31 | 21.66336 | 39.16184 | 58 ft | 3 kts | 157° |
| 2026-04-22 20:31 | 21.66298 | 39.16201 | 58 ft | 8 kts | 158° |
| 2026-04-22 20:31 | 21.66197 | 39.16243 | 58 ft | 25 kts | 159° |
| 2026-04-22 20:31 | 21.66105 | 39.16291 | 58 ft | 16 kts | 137° |
| 2026-04-22 20:32 | 21.66088 | 39.16316 | 58 ft | 0 kts | 111° |
| 2026-04-22 20:32 | 21.66087 | 39.16320 | 58 ft | 4 kts | 104° |
| 2026-04-22 20:33 | 21.66107 | 39.16420 | 58 ft | 23 kts | 67° |
| 2026-04-22 20:33 | 21.66144 | 39.16466 | 58 ft | 9 kts | 10° |
| 2026-04-22 20:33 | 21.66197 | 39.16460 | 58 ft | 0 kts | 340° |
| 2026-04-22 20:34 | 21.66206 | 39.16457 | 58 ft | 12 kts | 340° |
| 2026-04-22 20:34 | 21.66486 | 39.16342 | 58 ft | 73 kts | 339° |
| 2026-04-22 20:35 | 21.67153 | 39.16081 | 58 ft | 128 kts | 341° |
| 2026-04-22 20:35 | 21.68148 | 39.15690 | 59 ft | 173 kts | 339° |
| 2026-04-22 20:35 | 21.69392 | 39.15193 | 189 ft | 199 kts | 339° |
| 2026-04-22 20:35 | 21.70528 | 39.14592 | 1219 ft | 167 kts | 328° |
| 2026-04-22 20:36 | 21.71512 | 39.14280 | 2115 ft | 143 kts | 356° |
| 2026-04-22 20:36 | 21.72519 | 39.14420 | 2647 ft | 157 kts | 18° |
| 2026-04-22 20:36 | 21.73827 | 39.14631 | 2523 ft | 220 kts | 346° |
| 2026-04-22 20:36 | 21.75205 | 39.14104 | 3723 ft | 211 kts | 343° |
| 2026-04-22 20:37 | 21.76591 | 39.13681 | 4785 ft | 210 kts | 344° |
| 2026-04-22 20:37 | 21.77986 | 39.13266 | 5712 ft | 214 kts | 345° |
| 2026-04-22 20:37 | 21.79416 | 39.12817 | 6576 ft | 218 kts | 332° |
| 2026-04-22 20:37 | 21.80747 | 39.12029 | 7470 ft | 220 kts | 333° |
| 2026-04-22 20:38 | 21.82110 | 39.11279 | 8169 ft | 232 kts | 333° |
| 2026-04-22 20:38 | 21.83674 | 39.10427 | 8394 ft | 268 kts | 333° |
| 2026-04-22 20:38 | 21.85377 | 39.09506 | 8705 ft | 270 kts | 333° |
| 2026-04-22 20:38 | 21.87009 | 39.08623 | 8887 ft | 260 kts | 333° |
| 2026-04-22 20:39 | 21.88595 | 39.07766 | 9110 ft | 246 kts | 333° |
| 2026-04-22 20:39 | 21.90097 | 39.06974 | 9308 ft | 237 kts | 336° |
| 2026-04-22 20:39 | 21.91601 | 39.06266 | 9548 ft | 234 kts | 336° |
| 2026-04-22 20:39 | 21.93117 | 39.05542 | 9584 ft | 241 kts | 336° |
| 2026-04-22 20:40 | 21.94665 | 39.04805 | 10103 ft | 243 kts | 336° |
| 2026-04-22 20:40 | 21.96188 | 39.04077 | 10761 ft | 240 kts | 336° |
| 2026-04-22 20:40 | 21.97736 | 39.03339 | 11210 ft | 245 kts | 336° |
| 2026-04-22 20:40 | 21.99314 | 39.02585 | 11713 ft | 248 kts | 336° |
| 2026-04-22 20:41 | 22.00901 | 39.01828 | 12201 ft | 251 kts | 336° |
| 2026-04-22 20:41 | 22.02512 | 39.01057 | 12678 ft | 255 kts | 336° |
| 2026-04-22 20:41 | 22.04128 | 39.00284 | 13148 ft | 259 kts | 336° |
| 2026-04-22 20:41 | 22.05800 | 38.99484 | 13624 ft | 262 kts | 336° |
| 2026-04-22 20:42 | 22.07479 | 38.98680 | 14100 ft | 265 kts | 336° |
| 2026-04-22 20:42 | 22.09175 | 38.97868 | 14564 ft | 269 kts | 336° |
| 2026-04-22 20:42 | 22.10888 | 38.97049 | 15022 ft | 272 kts | 336° |
| 2026-04-22 20:42 | 22.12622 | 38.96218 | 15479 ft | 276 kts | 336° |
| 2026-04-22 20:43 | 22.14389 | 38.95391 | 15936 ft | 278 kts | 341° |
| 2026-04-22 20:43 | 22.16331 | 38.95142 | 16326 ft | 282 kts | 9° |
| 2026-04-22 20:43 | 22.18147 | 38.95855 | 16753 ft | 284 kts | 35° |
| 2026-04-22 20:43 | 22.19634 | 38.97286 | 17206 ft | 286 kts | 44° |
| 2026-04-22 20:44 | 22.20469 | 38.98135 | 17466 ft | 288 kts | 43° |
| 2026-04-22 20:44 | 22.21960 | 38.99614 | 17903 ft | 291 kts | 43° |
| 2026-04-22 20:44 | 22.23461 | 39.01086 | 18332 ft | 294 kts | 42° |
| 2026-04-22 20:44 | 22.24968 | 39.02555 | 18757 ft | 296 kts | 42° |
| 2026-04-22 20:45 | 22.26507 | 39.04052 | 19178 ft | 299 kts | 42° |
| 2026-04-22 20:45 | 22.28063 | 39.05563 | 19594 ft | 302 kts | 42° |
| 2026-04-22 20:45 | 22.29570 | 39.07155 | 19975 ft | 305 kts | 54° |
| 2026-04-22 20:45 | 22.30471 | 39.09201 | 20308 ft | 308 kts | 77° |
| 2026-04-22 20:46 | 22.31425 | 39.13737 | 21130 ft | 312 kts | 77° |
| 2026-04-22 20:46 | 22.31921 | 39.16024 | 21496 ft | 315 kts | 77° |
| 2026-04-22 20:46 | 22.32418 | 39.18311 | 21870 ft | 318 kts | 77° |
| 2026-04-22 20:47 | 22.32924 | 39.20637 | 22237 ft | 320 kts | 77° |
| 2026-04-22 20:47 | 22.33434 | 39.22982 | 22597 ft | 323 kts | 77° |
| 2026-04-22 20:47 | 22.33952 | 39.25364 | 22953 ft | 325 kts | 77° |
| 2026-04-22 20:47 | 22.34467 | 39.27732 | 23299 ft | 328 kts | 77° |
| 2026-04-22 20:48 | 22.34993 | 39.30151 | 23646 ft | 331 kts | 77° |
| 2026-04-22 20:48 | 22.35516 | 39.32558 | 23986 ft | 333 kts | 77° |
| 2026-04-22 20:48 | 22.36044 | 39.34994 | 24324 ft | 336 kts | 77° |
| 2026-04-22 20:48 | 22.36578 | 39.37455 | 24660 ft | 338 kts | 77° |
| 2026-04-22 20:49 | 22.37113 | 39.39923 | 24991 ft | 341 kts | 77° |
| 2026-04-22 20:49 | 22.37654 | 39.42424 | 25320 ft | 343 kts | 77° |
| 2026-04-22 20:49 | 22.38195 | 39.44927 | 25644 ft | 346 kts | 77° |
| 2026-04-22 20:49 | 22.38744 | 39.47464 | 25966 ft | 348 kts | 77° |
| 2026-04-22 20:50 | 22.39293 | 39.50007 | 26283 ft | 351 kts | 77° |
| 2026-04-22 20:50 | 22.39848 | 39.52580 | 26598 ft | 353 kts | 77° |
| 2026-04-22 20:50 | 22.40409 | 39.55174 | 26910 ft | 356 kts | 77° |
| 2026-04-22 20:50 | 22.40969 | 39.57764 | 27216 ft | 358 kts | 77° |
| 2026-04-22 20:51 | 22.41541 | 39.60415 | 27524 ft | 361 kts | 77° |
| 2026-04-22 20:51 | 22.42107 | 39.63038 | 27826 ft | 363 kts | 77° |
| 2026-04-22 20:51 | 22.42682 | 39.65704 | 28127 ft | 365 kts | 77° |
| 2026-04-22 20:51 | 22.43257 | 39.68372 | 28424 ft | 368 kts | 77° |
| 2026-04-22 20:52 | 22.43838 | 39.71072 | 28721 ft | 370 kts | 77° |
| 2026-04-22 20:52 | 22.44423 | 39.73792 | 29015 ft | 373 kts | 77° |
| 2026-04-22 20:52 | 22.45008 | 39.76515 | 29304 ft | 375 kts | 77° |
| 2026-04-22 20:52 | 22.45601 | 39.79279 | 29594 ft | 378 kts | 77° |
| 2026-04-22 20:53 | 22.46262 | 39.82030 | 29860 ft | 380 kts | 69° |
| 2026-04-22 20:53 | 22.47588 | 39.84495 | 30070 ft | 383 kts | 49° |
| 2026-04-22 20:53 | 22.49527 | 39.86434 | 30353 ft | 384 kts | 40° |
| 2026-04-22 20:53 | 22.51569 | 39.88349 | 30658 ft | 386 kts | 41° |
| 2026-04-22 20:54 | 22.53607 | 39.90282 | 30903 ft | 389 kts | 41° |
| 2026-04-22 20:54 | 22.55672 | 39.92249 | 31163 ft | 391 kts | 41° |
| 2026-04-22 20:54 | 22.57735 | 39.94218 | 31433 ft | 393 kts | 41° |
| 2026-04-22 20:54 | 22.59814 | 39.96204 | 31685 ft | 396 kts | 41° |
| 2026-04-22 20:55 | 22.61873 | 39.98171 | 31931 ft | 398 kts | 41° |
| 2026-04-22 20:55 | 22.63956 | 40.00163 | 32177 ft | 400 kts | 41° |
| 2026-04-22 20:55 | 22.66060 | 40.02175 | 32418 ft | 402 kts | 41° |
| 2026-04-22 20:55 | 22.68153 | 40.04178 | 32652 ft | 404 kts | 41° |
| 2026-04-22 20:56 | 22.70276 | 40.06210 | 32885 ft | 407 kts | 41° |
| 2026-04-22 20:56 | 22.72408 | 40.08253 | 33113 ft | 409 kts | 41° |
| 2026-04-22 20:56 | 22.74538 | 40.10293 | 33336 ft | 411 kts | 41° |
| 2026-04-22 20:56 | 22.76676 | 40.12342 | 33555 ft | 413 kts | 41° |
| 2026-04-22 20:57 | 22.78832 | 40.14410 | 33771 ft | 415 kts | 41° |
| 2026-04-22 20:57 | 22.80981 | 40.16472 | 33981 ft | 417 kts | 41° |
| 2026-04-22 20:57 | 22.83172 | 40.18575 | 34191 ft | 419 kts | 41° |
| 2026-04-22 20:57 | 22.85358 | 40.20674 | 34397 ft | 421 kts | 41° |
| 2026-04-22 20:58 | 22.87536 | 40.22767 | 34597 ft | 422 kts | 41° |
| 2026-04-22 20:58 | 22.89752 | 40.24896 | 34796 ft | 424 kts | 41° |
| 2026-04-22 20:58 | 22.91952 | 40.27012 | 34990 ft | 426 kts | 41° |
| 2026-04-22 20:58 | 22.94175 | 40.29150 | 35181 ft | 428 kts | 41° |
| 2026-04-22 20:59 | 22.96251 | 40.31462 | 35320 ft | 430 kts | 54° |
| 2026-04-22 20:59 | 22.97744 | 40.34287 | 35453 ft | 432 kts | 62° |
| 2026-04-22 20:59 | 22.99118 | 40.37186 | 35663 ft | 432 kts | 64° |
| 2026-04-22 20:59 | 23.00418 | 40.40100 | 35833 ft | 434 kts | 64° |
| 2026-04-22 21:00 | 23.01750 | 40.43052 | 35963 ft | 436 kts | 60° |
| 2026-04-22 21:00 | 23.03519 | 40.45721 | 36055 ft | 437 kts | 45° |
| 2026-04-22 21:00 | 23.05917 | 40.47792 | 36191 ft | 439 kts | 33° |
| 2026-04-22 21:00 | 23.08492 | 40.49562 | 36348 ft | 439 kts | 31° |
| 2026-04-22 21:01 | 23.11144 | 40.51271 | 36466 ft | 441 kts | 30° |
| 2026-04-22 21:01 | 23.13781 | 40.52926 | 36569 ft | 443 kts | 30° |
| 2026-04-22 21:01 | 23.16474 | 40.54598 | 36692 ft | 444 kts | 30° |
| 2026-04-22 21:01 | 23.19169 | 40.56266 | 36804 ft | 445 kts | 30° |
| 2026-04-22 21:02 | 23.21867 | 40.57935 | 36907 ft | 447 kts | 30° |
| 2026-04-22 21:02 | 23.24570 | 40.59607 | 36999 ft | 446 kts | 30° |
| 2026-04-22 21:02 | 23.29575 | 40.63451 | 37019 ft | 440 kts | 43° |
| 2026-04-22 21:03 | 23.31529 | 40.66011 | 37009 ft | 444 kts | 60° |
| 2026-04-22 21:03 | 23.32840 | 40.69023 | 37034 ft | 446 kts | 68° |
| 2026-04-22 21:03 | 23.35093 | 40.75364 | 36985 ft | 453 kts | 70° |
| 2026-04-22 21:04 | 23.37244 | 40.81753 | 36991 ft | 450 kts | 70° |
| 2026-04-22 21:04 | 23.39370 | 40.88096 | 37016 ft | 446 kts | 70° |
| 2026-04-22 21:05 | 23.41510 | 40.94490 | 36999 ft | 448 kts | 70° |
| 2026-04-22 21:05 | 23.43627 | 41.00834 | 36987 ft | 449 kts | 70° |
| 2026-04-22 21:06 | 23.45753 | 41.07204 | 37009 ft | 448 kts | 70° |
| 2026-04-22 21:06 | 23.47862 | 41.13535 | 37006 ft | 447 kts | 70° |
| 2026-04-22 21:07 | 23.49977 | 41.19903 | 36987 ft | 448 kts | 70° |
| 2026-04-22 21:07 | 23.52097 | 41.26288 | 37003 ft | 448 kts | 70° |
| 2026-04-22 21:08 | 23.54202 | 41.32638 | 37012 ft | 447 kts | 70° |
| 2026-04-22 21:08 | 23.56316 | 41.39019 | 36989 ft | 448 kts | 70° |
| 2026-04-22 21:09 | 23.58413 | 41.45354 | 36997 ft | 448 kts | 70° |
| 2026-04-22 21:09 | 23.60532 | 41.51767 | 37015 ft | 447 kts | 70° |
| 2026-04-22 21:10 | 23.62629 | 41.58135 | 36992 ft | 448 kts | 70° |
| 2026-04-22 21:10 | 23.64720 | 41.64504 | 36993 ft | 448 kts | 70° |
| 2026-04-22 21:11 | 23.66168 | 41.71064 | 37029 ft | 446 kts | 82° |
| 2026-04-22 21:11 | 23.67140 | 41.77780 | 36981 ft | 449 kts | 81° |
| 2026-04-22 21:12 | 23.67841 | 41.84452 | 37011 ft | 447 kts | 88° |
| 2026-04-22 21:12 | 23.68142 | 41.91223 | 36988 ft | 449 kts | 87° |
| 2026-04-22 21:13 | 23.68493 | 41.97977 | 37009 ft | 448 kts | 86° |
| 2026-04-22 21:13 | 23.68850 | 42.04779 | 37008 ft | 447 kts | 86° |
| 2026-04-22 21:14 | 23.69201 | 42.11521 | 36987 ft | 448 kts | 86° |
| 2026-04-22 21:14 | 23.69550 | 42.18280 | 37001 ft | 448 kts | 86° |
| 2026-04-22 21:15 | 23.69898 | 42.25051 | 37013 ft | 447 kts | 86° |
| 2026-04-22 21:15 | 23.70241 | 42.31822 | 36990 ft | 448 kts | 86° |
| 2026-04-22 21:16 | 23.71354 | 42.54122 | 36967 ft | 448 kts | 86° |
| 2026-04-22 21:16 | 23.73916 | 43.08163 | 37086 ft | 448 kts | 87° |
| 2026-04-22 21:16 | 23.76289 | 43.62206 | 36995 ft | 448 kts | 87° |
| 2026-04-22 21:17 | 23.77019 | 43.79760 | 36993 ft | 447 kts | 87° |
| 2026-04-22 21:17 | 23.77296 | 43.86542 | 37000 ft | 447 kts | 87° |
| 2026-04-22 21:18 | 23.76924 | 43.94418 | 37038 ft | 447 kts | 95° |
| 2026-04-22 21:18 | 23.69085 | 44.86237 | 37037 ft | 448 kts | 95° |
| 2026-04-22 21:19 | 23.59051 | 45.94312 | 37003 ft | 447 kts | 96° |
| 2026-04-22 21:19 | 23.48264 | 47.01182 | 36970 ft | 446 kts | 94° |
| 2026-04-22 21:20 | 23.46682 | 47.20399 | 37052 ft | 445 kts | 99° |
| 2026-04-22 21:20 | 23.45840 | 47.27108 | 37004 ft | 447 kts | 97° |
| 2026-04-22 21:21 | 23.44869 | 47.36186 | 36976 ft | 446 kts | 96° |
| 2026-04-22 21:21 | 23.40802 | 47.74434 | 37255 ft | 446 kts | 97° |
| 2026-04-22 21:21 | 23.34947 | 48.28055 | 37029 ft | 448 kts | 96° |
| 2026-04-22 21:22 | 23.22732 | 49.34693 | 36989 ft | 446 kts | 97° |
| 2026-04-22 21:22 | 23.09736 | 50.41934 | 36998 ft | 445 kts | 97° |
| 2026-04-22 21:23 | 23.03487 | 50.91308 | 36998 ft | 445 kts | 98° |
| 2026-04-22 21:23 | 23.02613 | 50.97956 | 36999 ft | 446 kts | 98° |
| 2026-04-22 21:24 | 23.01754 | 51.04606 | 37001 ft | 445 kts | 98° |
| 2026-04-22 21:24 | 23.00896 | 51.11239 | 37001 ft | 445 kts | 98° |
| 2026-04-22 21:25 | 23.00037 | 51.17858 | 37002 ft | 445 kts | 98° |
| 2026-04-22 21:25 | 22.99173 | 51.24502 | 37001 ft | 445 kts | 98° |
| 2026-04-22 21:26 | 22.98308 | 51.31127 | 37001 ft | 445 kts | 98° |
| 2026-04-22 21:26 | 22.97434 | 51.37792 | 37001 ft | 445 kts | 98° |
| 2026-04-22 21:27 | 22.97003 | 51.41079 | 36887 ft | 449 kts | 98° |
| 2026-04-22 21:27 | 22.96560 | 51.44447 | 35685 ft | 457 kts | 98° |
| 2026-04-22 21:27 | 22.96113 | 51.47838 | 34656 ft | 448 kts | 98° |
| 2026-04-22 21:27 | 22.95681 | 51.51110 | 33717 ft | 439 kts | 98° |
| 2026-04-22 21:28 | 22.95250 | 51.54368 | 32758 ft | 431 kts | 98° |
| 2026-04-22 21:28 | 22.94832 | 51.57530 | 31784 ft | 425 kts | 98° |
| 2026-04-22 21:28 | 22.94413 | 51.60688 | 30799 ft | 419 kts | 98° |
| 2026-04-22 21:28 | 22.94005 | 51.63761 | 29828 ft | 413 kts | 98° |
| 2026-04-22 21:29 | 22.93601 | 51.66797 | 28855 ft | 408 kts | 98° |
| 2026-04-22 21:29 | 22.93198 | 51.69821 | 27874 ft | 403 kts | 98° |
| 2026-04-22 21:29 | 22.92802 | 51.72790 | 26899 ft | 397 kts | 98° |
| 2026-04-22 21:29 | 22.92415 | 51.75684 | 25936 ft | 393 kts | 98° |
| 2026-04-22 21:30 | 22.92024 | 51.78611 | 24951 ft | 388 kts | 98° |
| 2026-04-22 21:30 | 22.91645 | 51.81438 | 23988 ft | 383 kts | 98° |
| 2026-04-22 21:30 | 22.91264 | 51.84277 | 23009 ft | 379 kts | 98° |
| 2026-04-22 21:30 | 22.90888 | 51.87075 | 22034 ft | 374 kts | 98° |
| 2026-04-22 21:31 | 22.90519 | 51.89814 | 21068 ft | 370 kts | 98° |
| 2026-04-22 21:31 | 22.90150 | 51.92555 | 20091 ft | 366 kts | 98° |
| 2026-04-22 21:31 | 22.89785 | 51.95260 | 19116 ft | 362 kts | 98° |
| 2026-04-22 21:31 | 22.89427 | 51.97914 | 18149 ft | 358 kts | 98° |
| 2026-04-22 21:32 | 22.86489 | 52.19539 | 10516 ft | 353 kts | 98° |
| 2026-04-22 21:32 | 22.85104 | 52.29659 | 7067 ft | 340 kts | 98° |
| 2026-04-22 21:32 | 22.84763 | 52.32141 | 6674 ft | 316 kts | 98° |
| 2026-04-22 21:32 | 22.84461 | 52.34337 | 7124 ft | 286 kts | 98° |
| 2026-04-22 21:33 | 22.84172 | 52.36440 | 6902 ft | 280 kts | 98° |
| 2026-04-22 21:33 | 22.83891 | 52.38478 | 6998 ft | 263 kts | 98° |
| 2026-04-22 21:33 | 22.83627 | 52.40396 | 6959 ft | 252 kts | 98° |
| 2026-04-22 21:33 | 22.83375 | 52.42222 | 6969 ft | 240 kts | 98° |
| 2026-04-22 21:34 | 22.83134 | 52.43963 | 6970 ft | 228 kts | 98° |
| 2026-04-22 21:34 | 22.82905 | 52.45624 | 6964 ft | 220 kts | 98° |
| 2026-04-22 21:34 | 22.82670 | 52.47325 | 7349 ft | 243 kts | 98° |
| 2026-04-22 21:34 | 22.82449 | 52.49042 | 8210 ft | 229 kts | 92° |
| 2026-04-22 21:35 | 22.82570 | 52.50840 | 8509 ft | 245 kts | 83° |
| 2026-04-22 21:35 | 22.82739 | 52.52689 | 8721 ft | 239 kts | 84° |
| 2026-04-22 21:35 | 22.82887 | 52.54398 | 8823 ft | 223 kts | 84° |
| 2026-04-22 21:35 | 22.83027 | 52.56039 | 8771 ft | 214 kts | 84° |
| 2026-04-22 21:36 | 22.83160 | 52.57625 | 8633 ft | 209 kts | 84° |
| 2026-04-22 21:36 | 22.83291 | 52.59186 | 8452 ft | 209 kts | 84° |
| 2026-04-22 21:36 | 22.83428 | 52.60840 | 8657 ft | 230 kts | 84° |
| 2026-04-22 21:36 | 22.83572 | 52.62584 | 9502 ft | 242 kts | 84° |
| 2026-04-22 21:37 | 22.83722 | 52.64403 | 10511 ft | 247 kts | 84° |
| 2026-04-22 21:37 | 22.83873 | 52.66233 | 11328 ft | 245 kts | 85° |
| 2026-04-22 21:37 | 22.84027 | 52.68113 | 11690 ft | 257 kts | 85° |
| 2026-04-22 21:37 | 22.84184 | 52.70030 | 12246 ft | 260 kts | 85° |
| 2026-04-22 21:38 | 22.84345 | 52.71990 | 12801 ft | 262 kts | 85° |
| 2026-04-22 21:38 | 22.84504 | 52.73941 | 12868 ft | 256 kts | 85° |
| 2026-04-22 21:38 | 22.84656 | 52.75803 | 12874 ft | 246 kts | 85° |
| 2026-04-22 21:38 | 22.84808 | 52.77662 | 12911 ft | 247 kts | 85° |
| 2026-04-22 21:39 | 22.84960 | 52.79530 | 12898 ft | 248 kts | 85° |
| 2026-04-22 21:39 | 22.85110 | 52.81377 | 12901 ft | 248 kts | 85° |
| 2026-04-22 21:39 | 22.85261 | 52.83247 | 12905 ft | 248 kts | 85° |
| 2026-04-22 21:39 | 22.85413 | 52.85118 | 12897 ft | 248 kts | 85° |
| 2026-04-22 21:40 | 22.85562 | 52.86962 | 12902 ft | 248 kts | 85° |
| 2026-04-22 21:40 | 22.85713 | 52.88830 | 12904 ft | 248 kts | 85° |
| 2026-04-22 21:40 | 22.85864 | 52.90704 | 12898 ft | 248 kts | 85° |
| 2026-04-22 21:40 | 22.86012 | 52.92544 | 12901 ft | 248 kts | 85° |
| 2026-04-22 21:41 | 22.86162 | 52.94407 | 12904 ft | 248 kts | 85° |
| 2026-04-22 21:41 | 22.86313 | 52.96284 | 12899 ft | 248 kts | 85° |
| 2026-04-22 21:41 | 22.86461 | 52.98130 | 12900 ft | 248 kts | 85° |
| 2026-04-22 21:41 | 22.86610 | 52.99992 | 12905 ft | 248 kts | 85° |
| 2026-04-22 21:42 | 22.86759 | 53.01866 | 12900 ft | 248 kts | 85° |
| 2026-04-22 21:42 | 22.86907 | 53.03714 | 12899 ft | 248 kts | 85° |
| 2026-04-22 21:42 | 22.87056 | 53.05581 | 12904 ft | 248 kts | 85° |
| 2026-04-22 21:42 | 22.87205 | 53.07456 | 12901 ft | 248 kts | 85° |
| 2026-04-22 21:43 | 22.87351 | 53.09296 | 12899 ft | 248 kts | 85° |
| 2026-04-22 21:43 | 22.87499 | 53.11167 | 12903 ft | 248 kts | 85° |
| 2026-04-22 21:43 | 22.87993 | 53.17401 | 12897 ft | 248 kts | 85° |
| 2026-04-22 21:43 | 22.90301 | 53.47019 | 12914 ft | 248 kts | 85° |
| 2026-04-22 21:44 | 22.91030 | 53.56518 | 12902 ft | 249 kts | 85° |
| 2026-04-22 21:44 | 22.91179 | 53.58474 | 12949 ft | 274 kts | 85° |
| 2026-04-22 21:44 | 22.91340 | 53.60583 | 12917 ft | 283 kts | 85° |
| 2026-04-22 21:44 | 22.93294 | 53.86535 | 12620 ft | 272 kts | 85° |
| 2026-04-22 21:45 | 22.95646 | 54.18540 | 12570 ft | 259 kts | 85° |
| 2026-04-22 21:45 | 22.97830 | 54.49086 | 12690 ft | 254 kts | 85° |
| 2026-04-22 21:45 | 22.99951 | 54.79582 | 12968 ft | 255 kts | 86° |
| 2026-04-22 21:45 | 23.00849 | 54.92752 | 12923 ft | 256 kts | 86° |
| 2026-04-22 21:46 | 23.00979 | 54.94680 | 12892 ft | 255 kts | 86° |
| 2026-04-22 21:46 | 23.01109 | 54.96600 | 12907 ft | 255 kts | 86° |
| 2026-04-22 21:46 | 23.01238 | 54.98519 | 12902 ft | 256 kts | 86° |
| 2026-04-22 21:46 | 23.01367 | 55.00423 | 12897 ft | 255 kts | 86° |
| 2026-04-22 21:47 | 23.01497 | 55.02358 | 12905 ft | 255 kts | 86° |
| 2026-04-22 21:47 | 23.01625 | 55.04274 | 12901 ft | 256 kts | 86° |
| 2026-04-22 21:47 | 23.01753 | 55.06181 | 12898 ft | 255 kts | 86° |
| 2026-04-22 21:47 | 23.01883 | 55.08124 | 12904 ft | 255 kts | 86° |
| 2026-04-22 21:48 | 23.02010 | 55.10030 | 12902 ft | 256 kts | 86° |
| 2026-04-22 21:48 | 23.02138 | 55.11947 | 12898 ft | 255 kts | 86° |
| 2026-04-22 21:48 | 23.02265 | 55.13868 | 12902 ft | 255 kts | 86° |
| 2026-04-22 21:48 | 23.02395 | 55.15814 | 12903 ft | 256 kts | 86° |
| 2026-04-22 21:49 | 23.02521 | 55.17729 | 12899 ft | 255 kts | 86° |
| 2026-04-22 21:49 | 23.02648 | 55.19642 | 12901 ft | 255 kts | 86° |
| 2026-04-22 21:49 | 23.02775 | 55.21565 | 12904 ft | 256 kts | 86° |
| 2026-04-22 21:49 | 23.03133 | 55.23447 | 12884 ft | 256 kts | 62° |
| 2026-04-22 21:50 | 23.04268 | 55.24907 | 12939 ft | 256 kts | 33° |
| 2026-04-22 21:50 | 23.05848 | 55.25798 | 12928 ft | 257 kts | 26° |
| 2026-04-22 21:50 | 23.07448 | 55.26663 | 12891 ft | 255 kts | 26° |
| 2026-04-22 21:50 | 23.09045 | 55.27536 | 12906 ft | 255 kts | 27° |
| 2026-04-22 21:51 | 23.10619 | 55.28402 | 12902 ft | 256 kts | 27° |
| 2026-04-22 21:51 | 23.12224 | 55.29286 | 12897 ft | 255 kts | 27° |
| 2026-04-22 21:51 | 23.13805 | 55.30158 | 12906 ft | 255 kts | 27° |
| 2026-04-22 21:52 | 23.16990 | 55.31918 | 12898 ft | 255 kts | 27° |
| 2026-04-22 21:52 | 23.18576 | 55.32795 | 12906 ft | 255 kts | 27° |
| 2026-04-22 21:52 | 23.20154 | 55.33669 | 12901 ft | 256 kts | 27° |
| 2026-04-22 21:52 | 23.21745 | 55.34549 | 12898 ft | 255 kts | 27° |
| 2026-04-22 21:53 | 23.23335 | 55.35430 | 12901 ft | 255 kts | 27° |
| 2026-04-22 21:53 | 23.24908 | 55.36301 | 12976 ft | 254 kts | 27° |
| 2026-04-22 21:53 | 23.26489 | 55.37177 | 13012 ft | 257 kts | 27° |
| 2026-04-22 21:53 | 23.28089 | 55.38063 | 12990 ft | 256 kts | 27° |
| 2026-04-22 21:54 | 23.29689 | 55.38950 | 13007 ft | 256 kts | 27° |
| 2026-04-22 21:54 | 23.31267 | 55.39825 | 13000 ft | 256 kts | 27° |
| 2026-04-22 21:54 | 23.32857 | 55.40707 | 12997 ft | 256 kts | 27° |
| 2026-04-22 21:54 | 23.34458 | 55.41595 | 13006 ft | 256 kts | 27° |
| 2026-04-22 21:55 | 23.36042 | 55.42474 | 12999 ft | 256 kts | 27° |
| 2026-04-22 21:55 | 23.37219 | 55.43127 | 12997 ft | 256 kts | 27° |
| 2026-04-22 21:55 | 23.38625 | 55.43908 | 13004 ft | 256 kts | 27° |
| 2026-04-22 21:55 | 23.40213 | 55.44790 | 13002 ft | 256 kts | 27° |
| 2026-04-22 21:56 | 23.41807 | 55.45675 | 12998 ft | 256 kts | 27° |
| 2026-04-22 21:56 | 23.43387 | 55.46553 | 13002 ft | 256 kts | 27° |
| 2026-04-22 21:56 | 23.44982 | 55.47439 | 13004 ft | 256 kts | 27° |
| 2026-04-22 21:56 | 23.46579 | 55.48327 | 12999 ft | 256 kts | 27° |
| 2026-04-22 21:57 | 23.48157 | 55.49204 | 13000 ft | 256 kts | 27° |
| 2026-04-22 21:57 | 23.49756 | 55.50093 | 13005 ft | 256 kts | 27° |
| 2026-04-22 21:57 | 23.51332 | 55.50970 | 13000 ft | 256 kts | 27° |
| 2026-04-22 21:57 | 23.52929 | 55.51859 | 13000 ft | 256 kts | 27° |
| 2026-04-22 21:58 | 23.54510 | 55.52739 | 13003 ft | 256 kts | 27° |
| 2026-04-22 21:58 | 23.56115 | 55.53633 | 13000 ft | 256 kts | 27° |
| 2026-04-22 21:58 | 23.57693 | 55.54512 | 13001 ft | 256 kts | 27° |
| 2026-04-22 21:58 | 23.72778 | 55.62925 | 13021 ft | 256 kts | 27° |
| 2026-04-22 21:59 | 23.74370 | 55.63815 | 12996 ft | 256 kts | 27° |
| 2026-04-22 21:59 | 23.75945 | 55.64694 | 13000 ft | 255 kts | 27° |
| 2026-04-22 21:59 | 23.77548 | 55.65590 | 13005 ft | 256 kts | 27° |
| 2026-04-22 21:59 | 23.79121 | 55.66469 | 12996 ft | 256 kts | 27° |
| 2026-04-22 22:00 | 23.80706 | 55.67355 | 13003 ft | 256 kts | 27° |
| 2026-04-22 22:00 | 23.82295 | 55.68244 | 13003 ft | 256 kts | 27° |
| 2026-04-22 22:00 | 23.83898 | 55.69141 | 12997 ft | 256 kts | 27° |
| 2026-04-22 22:00 | 23.85469 | 55.70021 | 13003 ft | 256 kts | 27° |
| 2026-04-22 22:01 | 23.87064 | 55.70913 | 12998 ft | 256 kts | 27° |
| 2026-04-22 22:01 | 23.88671 | 55.71813 | 12849 ft | 257 kts | 27° |
| 2026-04-22 22:01 | 23.90243 | 55.72693 | 12686 ft | 255 kts | 27° |
| 2026-04-22 22:01 | 23.91830 | 55.73582 | 12536 ft | 254 kts | 27° |
| 2026-04-22 22:02 | 23.93392 | 55.74458 | 12390 ft | 253 kts | 27° |
| 2026-04-22 22:02 | 23.94970 | 55.75343 | 12239 ft | 252 kts | 27° |
| 2026-04-22 22:02 | 23.96519 | 55.76211 | 12086 ft | 251 kts | 27° |
| 2026-04-22 22:02 | 23.98076 | 55.77084 | 11939 ft | 251 kts | 27° |
| 2026-04-22 22:03 | 23.99638 | 55.77961 | 11791 ft | 251 kts | 27° |
| 2026-04-22 22:03 | 24.01194 | 55.78834 | 11641 ft | 251 kts | 27° |
| 2026-04-22 22:03 | 24.02755 | 55.79710 | 11490 ft | 250 kts | 27° |
| 2026-04-22 22:03 | 24.04302 | 55.80579 | 11340 ft | 249 kts | 27° |
| 2026-04-22 22:04 | 24.05835 | 55.81440 | 11191 ft | 249 kts | 27° |
| 2026-04-22 22:04 | 24.07386 | 55.82311 | 11039 ft | 248 kts | 27° |
| 2026-04-22 22:04 | 24.08919 | 55.83173 | 10889 ft | 248 kts | 27° |
| 2026-04-22 22:04 | 24.10468 | 55.84043 | 10737 ft | 247 kts | 27° |
| 2026-04-22 22:05 | 24.11998 | 55.84903 | 10587 ft | 247 kts | 27° |
| 2026-04-22 22:05 | 24.13530 | 55.85765 | 10436 ft | 246 kts | 27° |
| 2026-04-22 22:05 | 24.15047 | 55.86618 | 10286 ft | 246 kts | 27° |
| 2026-04-22 22:05 | 24.16561 | 55.87470 | 10210 ft | 244 kts | 27° |
| 2026-04-22 22:06 | 24.18066 | 55.88317 | 10222 ft | 244 kts | 27° |
| 2026-04-22 22:06 | 24.19587 | 55.89174 | 10221 ft | 245 kts | 27° |
| 2026-04-22 22:06 | 24.21117 | 55.90036 | 10218 ft | 245 kts | 27° |
| 2026-04-22 22:06 | 24.22627 | 55.90886 | 10215 ft | 245 kts | 27° |
| 2026-04-22 22:07 | 24.24155 | 55.91747 | 10216 ft | 245 kts | 27° |
| 2026-04-22 22:07 | 24.25686 | 55.92610 | 10219 ft | 245 kts | 27° |
| 2026-04-22 22:07 | 24.27207 | 55.93467 | 10217 ft | 245 kts | 27° |
| 2026-04-22 22:07 | 24.28715 | 55.94318 | 10214 ft | 245 kts | 27° |
| 2026-04-22 22:08 | 24.30237 | 55.95176 | 10216 ft | 245 kts | 27° |
| 2026-04-22 22:08 | 24.31766 | 55.96039 | 10220 ft | 245 kts | 27° |
| 2026-04-22 22:08 | 24.33275 | 55.96890 | 10215 ft | 245 kts | 27° |
| 2026-04-22 22:08 | 24.34789 | 55.97745 | 10214 ft | 245 kts | 27° |
| 2026-04-22 22:09 | 24.36314 | 55.98607 | 10221 ft | 245 kts | 27° |
| 2026-04-22 22:09 | 24.37834 | 55.99466 | 10216 ft | 245 kts | 27° |
| 2026-04-22 22:09 | 24.39358 | 56.00326 | 10213 ft | 245 kts | 27° |
| 2026-04-22 22:09 | 24.40874 | 56.01183 | 10221 ft | 245 kts | 27° |
| 2026-04-22 22:10 | 24.42391 | 56.02040 | 10216 ft | 245 kts | 27° |
| 2026-04-22 22:10 | 24.43913 | 56.02901 | 10213 ft | 245 kts | 27° |
| 2026-04-22 22:10 | 24.45435 | 56.03762 | 10221 ft | 245 kts | 27° |
| 2026-04-22 22:10 | 24.46963 | 56.04626 | 10216 ft | 245 kts | 27° |
| 2026-04-22 22:11 | 24.48487 | 56.05489 | 10213 ft | 245 kts | 27° |
| 2026-04-22 22:11 | 24.49998 | 56.06344 | 10221 ft | 245 kts | 27° |
| 2026-04-22 22:11 | 24.51518 | 56.07205 | 10216 ft | 245 kts | 27° |
| 2026-04-22 22:11 | 24.53038 | 56.08066 | 10211 ft | 243 kts | 27° |
| 2026-04-22 22:12 | 24.54502 | 56.08895 | 10186 ft | 227 kts | 27° |
| 2026-04-22 22:12 | 24.55851 | 56.09659 | 10194 ft | 212 kts | 27° |
| 2026-04-22 22:12 | 24.57150 | 56.10396 | 10343 ft | 206 kts | 27° |
| 2026-04-22 22:12 | 24.58452 | 56.11134 | 10192 ft | 210 kts | 27° |
| 2026-04-22 22:13 | 24.59740 | 56.11859 | 10217 ft | 207 kts | 26° |
| 2026-04-22 22:13 | 24.61154 | 56.12116 | 10200 ft | 208 kts | 352° |
| 2026-04-22 22:13 | 24.62585 | 56.11884 | 10256 ft | 210 kts | 352° |
| 2026-04-22 22:13 | 24.64050 | 56.11667 | 10200 ft | 209 kts | 352° |
| 2026-04-22 22:14 | 24.65490 | 56.11456 | 10221 ft | 209 kts | 352° |
| 2026-04-22 22:14 | 24.66935 | 56.11244 | 10219 ft | 209 kts | 352° |
| 2026-04-22 22:14 | 24.68390 | 56.11033 | 10214 ft | 209 kts | 352° |
| 2026-04-22 22:14 | 24.69836 | 56.10823 | 10219 ft | 209 kts | 352° |
| 2026-04-22 22:15 | 24.71281 | 56.10614 | 10217 ft | 209 kts | 352° |
| 2026-04-22 22:15 | 24.72725 | 56.10405 | 10214 ft | 209 kts | 352° |
| 2026-04-22 22:15 | 24.74184 | 56.10194 | 10003 ft | 213 kts | 352° |
| 2026-04-22 22:15 | 24.75656 | 56.09981 | 9688 ft | 209 kts | 352° |
| 2026-04-22 22:16 | 24.77076 | 56.09776 | 9444 ft | 207 kts | 352° |
| 2026-04-22 22:16 | 24.78515 | 56.09568 | 9195 ft | 207 kts | 352° |
| 2026-04-22 22:16 | 24.79946 | 56.09361 | 8948 ft | 206 kts | 352° |
| 2026-04-22 22:16 | 24.81372 | 56.09155 | 8698 ft | 205 kts | 352° |
| 2026-04-22 22:17 | 24.82788 | 56.08950 | 8449 ft | 205 kts | 352° |
| 2026-04-22 22:17 | 24.84195 | 56.08746 | 8224 ft | 203 kts | 352° |
| 2026-04-22 22:17 | 24.85598 | 56.08543 | 8224 ft | 201 kts | 352° |
| 2026-04-22 22:17 | 24.86989 | 56.08342 | 8226 ft | 203 kts | 352° |
| 2026-04-22 22:18 | 24.88402 | 56.08137 | 8215 ft | 204 kts | 352° |
| 2026-04-22 22:18 | 24.89807 | 56.07882 | 8204 ft | 204 kts | 340° |
| 2026-04-22 22:18 | 24.90923 | 56.06976 | 8219 ft | 203 kts | 304° |
| 2026-04-22 22:18 | 24.91687 | 56.05634 | 8249 ft | 205 kts | 301° |
| 2026-04-22 22:19 | 24.92399 | 56.04274 | 8102 ft | 208 kts | 299° |
| 2026-04-22 22:19 | 24.93079 | 56.02887 | 7640 ft | 206 kts | 297° |
| 2026-04-22 22:19 | 24.93731 | 56.01495 | 7198 ft | 202 kts | 297° |
| 2026-04-22 22:19 | 24.94349 | 56.00138 | 6775 ft | 200 kts | 296° |
| 2026-04-22 22:20 | 24.94962 | 55.98772 | 6352 ft | 198 kts | 296° |
| 2026-04-22 22:20 | 24.95562 | 55.97416 | 6255 ft | 193 kts | 296° |
| 2026-04-22 22:20 | 24.96155 | 55.96066 | 6232 ft | 196 kts | 296° |
| 2026-04-22 22:20 | 24.96742 | 55.94723 | 6214 ft | 196 kts | 295° |
| 2026-04-22 22:21 | 24.97337 | 55.93357 | 6223 ft | 197 kts | 295° |
| 2026-04-22 22:21 | 24.97926 | 55.92003 | 6217 ft | 197 kts | 295° |
| 2026-04-22 22:21 | 24.98519 | 55.90636 | 6216 ft | 197 kts | 295° |
| 2026-04-22 22:21 | 24.99113 | 55.89267 | 6143 ft | 200 kts | 295° |
| 2026-04-22 22:22 | 24.99715 | 55.87879 | 5624 ft | 202 kts | 295° |
| 2026-04-22 22:22 | 25.00309 | 55.86505 | 5185 ft | 196 kts | 295° |
| 2026-04-22 22:22 | 25.00890 | 55.85164 | 4755 ft | 193 kts | 295° |
| 2026-04-22 22:22 | 25.01467 | 55.83829 | 4333 ft | 192 kts | 295° |
| 2026-04-22 22:23 | 25.02038 | 55.82511 | 4218 ft | 188 kts | 295° |
| 2026-04-22 22:23 | 25.02596 | 55.81220 | 4317 ft | 194 kts | 295° |
| 2026-04-22 22:23 | 25.03178 | 55.79871 | 4146 ft | 189 kts | 295° |
| 2026-04-22 22:23 | 25.03741 | 55.78568 | 4247 ft | 191 kts | 295° |
| 2026-04-22 22:24 | 25.04318 | 55.77233 | 4206 ft | 191 kts | 295° |
| 2026-04-22 22:24 | 25.04890 | 55.75908 | 4220 ft | 191 kts | 296° |
| 2026-04-22 22:24 | 25.05287 | 55.74497 | 4217 ft | 191 kts | 284° |
| 2026-04-22 22:24 | 25.05686 | 55.73113 | 4206 ft | 192 kts | 290° |
| 2026-04-22 22:25 | 25.06180 | 55.71726 | 3859 ft | 192 kts | 293° |
| 2026-04-22 22:25 | 25.06728 | 55.70393 | 3552 ft | 190 kts | 295° |
| 2026-04-22 22:25 | 25.07318 | 55.69084 | 3251 ft | 189 kts | 297° |
| 2026-04-22 22:25 | 25.07921 | 55.67835 | 2929 ft | 181 kts | 298° |
| 2026-04-22 22:26 | 25.08515 | 55.66660 | 2738 ft | 174 kts | 299° |
| 2026-04-22 22:26 | 25.09123 | 55.65491 | 2449 ft | 175 kts | 300° |
| 2026-04-22 22:26 | 25.09742 | 55.64331 | 2205 ft | 173 kts | 301° |
| 2026-04-22 22:26 | 25.10361 | 55.63192 | 2236 ft | 173 kts | 301° |
| 2026-04-22 22:27 | 25.10983 | 55.62065 | 2222 ft | 175 kts | 301° |
| 2026-04-22 22:27 | 25.11621 | 55.60915 | 2218 ft | 175 kts | 301° |
| 2026-04-22 22:27 | 25.12262 | 55.59762 | 2221 ft | 175 kts | 301° |
| 2026-04-22 22:27 | 25.12895 | 55.58628 | 2231 ft | 173 kts | 302° |
| 2026-04-22 22:28 | 25.13510 | 55.57527 | 2184 ft | 162 kts | 302° |
| 2026-04-22 22:28 | 25.14089 | 55.56491 | 2195 ft | 156 kts | 302° |
| 2026-04-22 22:28 | 25.14654 | 55.55480 | 2217 ft | 155 kts | 302° |
| 2026-04-22 22:28 | 25.15227 | 55.54457 | 2216 ft | 155 kts | 302° |
| 2026-04-22 22:29 | 25.15790 | 55.53449 | 2219 ft | 155 kts | 301° |
| 2026-04-22 22:29 | 25.16361 | 55.52424 | 2217 ft | 155 kts | 301° |
| 2026-04-22 22:29 | 25.16922 | 55.51413 | 2217 ft | 155 kts | 301° |
| 2026-04-22 22:29 | 25.17493 | 55.50397 | 2219 ft | 155 kts | 302° |
| 2026-04-22 22:30 | 25.18066 | 55.49378 | 2118 ft | 158 kts | 302° |
| 2026-04-22 22:30 | 25.18638 | 55.48355 | 1906 ft | 155 kts | 302° |
| 2026-04-22 22:30 | 25.19207 | 55.47335 | 1705 ft | 154 kts | 302° |
| 2026-04-22 22:30 | 25.19763 | 55.46335 | 1507 ft | 154 kts | 301° |
| 2026-04-22 22:31 | 25.20323 | 55.45326 | 1303 ft | 153 kts | 301° |
| 2026-04-22 22:31 | 25.20888 | 55.44320 | 1097 ft | 153 kts | 302° |
| 2026-04-22 22:31 | 25.21439 | 55.43333 | 895 ft | 152 kts | 302° |
| 2026-04-22 22:31 | 25.21995 | 55.42334 | 682 ft | 149 kts | 301° |
| 2026-04-22 22:32 | 25.22531 | 55.41370 | 489 ft | 146 kts | 301° |
| 2026-04-22 22:32 | 25.23060 | 55.40425 | 299 ft | 145 kts | 302° |
| 2026-04-22 22:32 | 25.23594 | 55.39466 | 108 ft | 145 kts | 301° |
| 2026-04-22 22:32 | 25.24113 | 55.38528 | 60 ft | 141 kts | 300° |
| 2026-04-22 22:33 | 25.24414 | 55.37968 | 56 ft | 10 kts | 275° |
| 2026-04-22 22:33 | 25.24415 | 55.37962 | 56 ft | 5 kts | 275° |
| 2026-04-22 22:33 | 25.24410 | 55.37885 | 56 ft | 4 kts | 236° |
| 2026-04-22 22:33 | 25.24410 | 55.37884 | 56 ft | 0 kts | 232° |
| 2026-04-22 22:36 | 25.24408 | 55.37882 | 56 ft | 1 kts | 230° |
| 2026-04-22 22:36 | 25.24386 | 55.37861 | 56 ft | 6 kts | 217° |
| 2026-04-22 22:36 | 25.24346 | 55.37815 | 55 ft | 10 kts | 243° |
| 2026-04-22 22:36 | 25.24367 | 55.37733 | 51 ft | 0 kts | 300° |
| 2026-04-22 22:37 | 25.24377 | 55.37715 | 51 ft | 6 kts | 300° |
| 2026-04-22 22:38 | 25.24410 | 55.37651 | 49 ft | 12 kts | 301° |
| 2026-04-22 22:38 | 25.24460 | 55.37560 | 51 ft | 15 kts | 302° |
| 2026-04-22 22:38 | 25.24519 | 55.37454 | 53 ft | 17 kts | 301° |
| 2026-04-22 22:38 | 25.24589 | 55.37328 | 54 ft | 21 kts | 301° |
| 2026-04-22 22:39 | 25.24678 | 55.37167 | 49 ft | 27 kts | 302° |
| 2026-04-22 22:39 | 25.24779 | 55.36985 | 48 ft | 27 kts | 302° |
| 2026-04-22 22:39 | 25.24854 | 55.36807 | 49 ft | 4 kts | 285° |
| 2026-04-22 22:40 | 25.24855 | 55.36800 | 49 ft | 3 kts | 284° |
| 2026-04-22 22:40 | 25.24869 | 55.36744 | 49 ft | 11 kts | 288° |
| 2026-04-22 22:40 | 25.24912 | 55.36635 | 49 ft | 19 kts | 296° |
| 2026-04-22 22:41 | 25.24996 | 55.36473 | 43 ft | 29 kts | 302° |
| 2026-04-22 22:41 | 25.25120 | 55.36251 | 39 ft | 37 kts | 301° |
| 2026-04-22 22:41 | 25.25180 | 55.36142 | 42 ft | 0 kts | 301° |
| 2026-04-22 22:41 | 25.25182 | 55.36138 | 42 ft | 2 kts | 301° |
| 2026-04-22 22:42 | 25.25198 | 55.36108 | 41 ft | 7 kts | 300° |
| 2026-04-22 22:42 | 25.25231 | 55.36044 | 38 ft | 11 kts | 300° |
| 2026-04-22 22:42 | 25.25280 | 55.35953 | 38 ft | 14 kts | 302° |
| 2026-04-22 22:42 | 25.25333 | 55.35856 | 40 ft | 14 kts | 301° |
| 2026-04-22 22:43 | 25.25392 | 55.35751 | 38 ft | 17 kts | 302° |
| 2026-04-22 22:43 | 25.25396 | 55.35744 | 38 ft | 0 kts | 302° |
| 2026-04-22 22:43 | 25.25412 | 55.35714 | 37 ft | 8 kts | 300° |
| 2026-04-22 22:44 | 25.25448 | 55.35634 | 35 ft | 14 kts | 283° |
| 2026-04-22 22:44 | 25.25470 | 55.35491 | 30 ft | 23 kts | 280° |
| 2026-04-22 22:44 | 25.25544 | 55.35318 | 31 ft | 27 kts | 298° |
| 2026-04-22 22:44 | 25.25644 | 55.35117 | 33 ft | 31 kts | 299° |
| 2026-04-22 22:45 | 25.25770 | 55.34889 | 33 ft | 37 kts | 301° |
| 2026-04-22 22:45 | 25.25916 | 55.34624 | 30 ft | 43 kts | 300° |
| 2026-04-22 22:45 | 25.25966 | 55.34536 | 30 ft | 3 kts | 301° |
| 2026-04-22 22:45 | 25.25988 | 55.34491 | 29 ft | 9 kts | 297° |
| 2026-04-22 22:46 | 25.26038 | 55.34403 | 28 ft | 17 kts | 303° |
| 2026-04-22 22:46 | 25.26049 | 55.34385 | 27 ft | 0 kts | 302° |
| 2026-04-22 22:46 | 25.26064 | 55.34353 | 27 ft | 8 kts | 289° |
| 2026-04-22 22:46 | 25.26056 | 55.34329 | 26 ft | 1 kts | 208° |
| 2026-04-22 22:47 | 25.26027 | 55.34317 | 26 ft | 7 kts | 209° |
| 2026-04-22 22:47 | 25.26003 | 55.34301 | 26 ft | 0 kts | 212° |